Time;durP1;ratioP1;P1;durP2;ratioP2;P2;SDS_P1;SDS_P2;PMS_P1;PMS_P2;Temp;Humidity;BMP_temperature;BMP_pressure;BME280_temperature;BME280_humidity;BME280_pressure;Samples;Min_cycle;Max_cycle;Signal;HPM_P1;HPM_P2
2021/10/08 00:00:27;;;;;;;9.10;6.53;;;8.30;99.90;;;;;;5013715;28;20053;-91
2021/10/08 00:03:34;;;;;;;8.77;6.70;;;8.30;99.90;;;;;;4990318;28;20035;-91
2021/10/08 00:06:44;;;;;;;9.85;6.18;;;8.30;99.90;;;;;;4947202;29;20134;-91
2021/10/08 00:09:36;;;;;;;10.03;7.53;;;8.20;99.90;;;;;;4950784;29;20039;-91
2021/10/08 00:12:27;;;;;;;7.55;5.60;;;8.20;99.90;;;;;;4959375;28;20043;-91
2021/10/08 00:15:17;;;;;;;11.38;6.45;;;8.20;99.90;;;;;;4978980;28;20047;-91
2021/10/08 00:18:07;;;;;;;10.80;7.35;;;8.20;99.90;;;;;;5008998;28;20101;-91
2021/10/08 00:20:57;;;;;;;7.55;6.00;;;8.20;99.90;;;;;;5015585;28;20050;-91
2021/10/08 00:24:01;;;;;;;11.45;6.50;;;8.20;99.90;;;;;;5028725;28;20068;-91
2021/10/08 00:26:52;;;;;;;8.98;6.15;;;8.30;99.90;;;;;;5005764;28;20130;-91
2021/10/08 00:29:43;;;;;;;7.28;5.57;;;8.30;99.90;;;;;;5002891;28;20073;-93
2021/10/08 00:32:32;;;;;;;7.60;6.10;;;8.30;99.90;;;;;;5034302;28;20134;-93
2021/10/08 00:35:24;;;;;;;6.25;5.65;;;8.30;99.90;;;;;;5061348;28;20052;-94
2021/10/08 00:38:42;;;;;;;9.15;5.47;;;8.40;99.90;;;;;;5059367;28;20052;-94
2021/10/08 00:41:40;;;;;;;8.13;5.68;;;8.40;99.90;;;;;;5070357;28;20456;-92
2021/10/08 00:44:44;;;;;;;8.40;6.00;;;8.50;99.90;;;;;;5054364;28;20045;-93
2021/10/08 00:47:31;;;;;;;;;;;8.40;99.90;;;;;;5040876;28;20042;-93
2021/10/08 00:50:26;;;;;;;8.02;5.80;;;8.40;99.90;;;;;;5039536;28;20411;-92
2021/10/08 00:53:26;;;;;;;9.23;6.18;;;8.40;99.90;;;;;;5058819;28;20052;-93
2021/10/08 00:56:20;;;;;;;9.23;6.20;;;8.30;99.90;;;;;;5064628;28;20042;-93
2021/10/08 00:59:15;;;;;;;13.05;6.32;;;8.30;99.90;;;;;;5049048;28;20048;-93
2021/10/08 01:02:05;;;;;;;8.00;6.05;;;8.20;99.90;;;;;;5046198;28;20127;-93
2021/10/08 01:04:56;;;;;;;10.13;6.50;;;8.10;99.90;;;;;;5057818;28;20124;-93
2021/10/08 01:07:51;;;;;;;12.45;6.60;;;7.90;99.90;;;;;;5056035;28;20056;-93
2021/10/08 01:11:06;;;;;;;10.63;6.28;;;7.70;99.90;;;;;;5037952;28;20200;-92
2021/10/08 01:13:54;;;;;;;9.98;7.43;;;7.60;99.90;;;;;;5046186;28;20038;-89
2021/10/08 01:16:44;;;;;;;10.18;7.07;;;7.50;99.90;;;;;;5085348;28;20049;-90
2021/10/08 01:19:36;;;;;;;10.07;7.47;;;7.30;99.90;;;;;;5066689;28;20110;-92
2021/10/08 01:22:32;;;;;;;14.23;7.65;;;7.30;99.90;;;;;;5066899;28;20036;-92
2021/10/08 01:25:57;;;;;;;8.40;7.25;;;7.10;99.90;;;;;;5049474;28;20053;-93
2021/10/08 01:29:17;;;;;;;;;;;;;;;;;;;;;
2021/10/08 01:32:24;;;;;;;12.50;7.90;;;7.00;99.90;;;;;;5055188;28;20049;-91
2021/10/08 01:35:24;;;;;;;;;;;;;;;;;;;;;
2021/10/08 01:38:19;;;;;;;10.40;7.95;;;6.70;99.90;;;;;;5057951;28;20444;-91
2021/10/08 01:41:31;;;;;;;;;;;;;;;;;;;;;
2021/10/08 01:44:22;;;;;;;10.60;9.15;;;6.60;99.90;;;;;;5051832;28;20053;-92
2021/10/08 01:47:14;;;;;;;12.43;9.60;;;6.50;99.90;;;;;;5048662;28;20153;-93
2021/10/08 01:50:02;;;;;;;13.55;9.52;;;6.50;99.90;;;;;;5058005;28;20045;-92
2021/10/08 01:53:01;;;;;;;;;;;;;;;;;;;;;
2021/10/08 01:55:59;;;;;;;;;;;;;;;;;;;;;
2021/10/08 01:59:30;;;;;;;18.95;11.93;;;6.30;99.90;;;;;;5054921;28;20040;-92
2021/10/08 02:02:37;;;;;;;17.35;11.05;;;6.30;99.90;;;;;;5062691;28;20033;-92
2021/10/08 02:05:50;;;;;;;18.23;12.23;;;6.30;99.90;;;;;;5067799;28;20052;-92
2021/10/08 02:08:48;;;;;;;19.17;12.27;;;6.30;99.90;;;;;;5064497;28;20148;-92
2021/10/08 02:11:43;;;;;;;17.50;12.15;;;6.30;99.90;;;;;;5035865;28;20099;-92
2021/10/08 02:14:33;;;;;;;21.13;13.05;;;6.20;99.90;;;;;;5089679;28;20029;-92
2021/10/08 02:17:24;;;;;;;18.02;12.13;;;6.20;99.90;;;;;;5073021;28;20041;-92
2021/10/08 02:20:22;;;;;;;22.00;12.88;;;6.20;99.90;;;;;;5100536;28;20037;-92
2021/10/08 02:23:10;;;;;;;17.42;11.43;;;6.10;99.90;;;;;;5089887;28;20110;-92
2021/10/08 02:25:57;;;;;;;19.13;11.90;;;6.20;99.90;;;;;;5089332;28;20109;-92
2021/10/08 02:28:47;;;;;;;19.23;12.23;;;6.10;99.90;;;;;;5075388;28;20048;-92
2021/10/08 02:31:42;;;;;;;21.20;11.90;;;6.00;99.90;;;;;;5061431;28;20041;-93
2021/10/08 02:34:32;;;;;;;22.15;11.85;;;6.00;99.90;;;;;;5057193;28;20033;-92
2021/10/08 02:37:33;;;;;;;19.77;12.77;;;5.90;99.90;;;;;;5054980;28;20041;-91
2021/10/08 02:40:22;;;;;;;22.40;13.35;;;5.90;99.90;;;;;;5055000;28;20041;-92
2021/10/08 02:43:14;;;;;;;20.20;14.40;;;5.90;99.90;;;;;;5054751;28;20049;-92
2021/10/08 02:46:06;;;;;;;26.73;15.00;;;5.90;99.90;;;;;;5046432;28;20041;-91
2021/10/08 02:48:59;;;;;;;26.38;15.95;;;5.80;99.90;;;;;;5050052;28;20075;-90
2021/10/08 02:52:03;;;;;;;;;;;;;;;;;;;;;
2021/10/08 02:54:51;;;;;;;29.63;16.08;;;5.90;99.90;;;;;;5036977;28;20034;-93
2021/10/08 02:57:51;;;;;;;25.42;16.10;;;5.90;99.90;;;;;;5043278;28;20049;-92
2021/10/08 03:00:43;;;;;;;28.65;16.83;;;5.90;99.90;;;;;;5078899;28;20049;-92
2021/10/08 03:03:33;;;;;;;31.30;16.98;;;5.90;99.90;;;;;;5043760;28;20353;-92
2021/10/08 03:06:20;;;;;;;30.67;17.30;;;5.90;99.90;;;;;;5035320;28;20049;-92
2021/10/08 03:09:07;;;;;;;26.73;16.83;;;5.90;99.90;;;;;;5040214;28;20045;-92
2021/10/08 03:11:55;;;;;;;28.40;18.85;;;5.90;99.90;;;;;;5047780;28;20042;-91
2021/10/08 03:14:43;;;;;;;33.60;19.45;;;5.90;99.90;;;;;;5063543;28;20060;-91
2021/10/08 03:17:30;;;;;;;33.75;19.17;;;5.80;99.90;;;;;;5097381;28;20040;-92
2021/10/08 03:20:19;;;;;;;30.92;18.33;;;5.80;99.90;;;;;;5047303;28;20103;-91
2021/10/08 03:23:07;;;;;;;37.13;18.63;;;5.80;99.90;;;;;;5060758;28;20041;-91
2021/10/08 03:25:54;;;;;;;31.27;18.85;;;5.70;99.90;;;;;;5082773;28;20048;-91
2021/10/08 03:28:42;;;;;;;32.95;19.27;;;5.70;99.90;;;;;;5055118;28;20064;-93
2021/10/08 03:31:33;;;;;;;34.00;19.23;;;5.70;99.90;;;;;;5037562;28;20128;-82
2021/10/08 03:34:20;;;;;;;37.55;20.88;;;5.70;99.90;;;;;;5064823;28;20071;-82
2021/10/08 03:37:16;;;;;;;38.00;20.40;;;5.70;99.90;;;;;;5041768;28;20064;-82
2021/10/08 03:40:04;;;;;;;33.00;20.27;;;5.70;99.90;;;;;;5039322;28;20523;-82
2021/10/08 03:42:51;;;;;;;38.30;19.95;;;5.70;99.90;;;;;;5050309;28;20041;-83
2021/10/08 03:45:46;;;;;;;38.53;21.02;;;5.70;99.90;;;;;;5047023;28;20108;-81
2021/10/08 03:51:20;;;;;;;38.75;21.48;;;5.60;99.90;;;;;;5047207;28;20128;-82
2021/10/08 03:54:08;;;;;;;45.05;24.17;;;5.60;99.90;;;;;;5041130;28;20135;-82
2021/10/08 03:56:55;;;;;;;48.55;24.02;;;5.60;99.90;;;;;;5048840;28;20113;-82
2021/10/08 03:59:42;;;;;;;43.25;23.73;;;5.60;99.90;;;;;;5047696;28;20151;-83
2021/10/08 04:02:30;;;;;;;45.15;24.25;;;5.60;99.90;;;;;;5049145;28;20231;-82
2021/10/08 04:05:17;;;;;;;50.50;27.02;;;5.60;99.90;;;;;;5053334;28;20037;-83
2021/10/08 04:08:04;;;;;;;53.60;28.27;;;5.60;99.90;;;;;;5074408;28;20041;-83
2021/10/08 04:10:52;;;;;;;62.15;30.95;;;5.70;99.90;;;;;;5047611;28;20072;-83
2021/10/08 04:13:39;;;;;;;65.35;32.58;;;5.70;99.90;;;;;;5047647;28;20045;-83
2021/10/08 04:16:27;;;;;;;55.53;29.27;;;5.70;99.90;;;;;;5036356;28;20485;-83
2021/10/08 04:19:16;;;;;;;64.13;29.98;;;5.70;99.90;;;;;;5056721;28;20049;-82
2021/10/08 04:22:04;;;;;;;56.00;28.27;;;5.60;99.90;;;;;;5052777;28;20052;-82
2021/10/08 04:24:52;;;;;;;57.80;29.65;;;5.70;99.90;;;;;;5042715;28;20040;-84
2021/10/08 04:27:39;;;;;;;64.65;27.63;;;5.60;99.90;;;;;;5076834;28;20052;-83
2021/10/08 04:30:26;;;;;;;60.85;28.73;;;5.60;99.90;;;;;;5063401;28;20084;-83
2021/10/08 04:33:15;;;;;;;69.07;30.02;;;5.60;99.90;;;;;;5052845;28;20095;-83
2021/10/08 04:45:35;;;;;;;65.07;30.15;;;5.80;99.90;;;;;;5072862;28;20518;-84
2021/10/08 04:59:09;;;;;;;70.63;36.20;;;5.90;99.90;;;;;;4985905;23;20058;-83
2021/10/08 05:02:01;;;;;;;76.85;38.72;;;5.90;99.90;;;;;;4975431;28;20054;-84
2021/10/08 05:04:48;;;;;;;84.18;37.08;;;6.00;99.90;;;;;;4987890;28;20057;-86
2021/10/08 05:07:38;;;;;;;68.13;37.25;;;6.00;99.90;;;;;;4974516;28;20051;-84
2021/10/08 05:10:25;;;;;;;77.30;37.92;;;6.00;99.90;;;;;;4975700;28;20253;-84
2021/10/08 05:13:12;;;;;;;81.45;38.40;;;6.00;99.90;;;;;;4984811;28;20053;-84
2021/10/08 05:16:00;;;;;;;75.72;38.28;;;6.00;99.90;;;;;;4984103;28;20041;-83
2021/10/08 05:18:52;;;;;;;94.45;38.80;;;6.00;99.90;;;;;;5013137;28;20050;-85
2021/10/08 05:21:39;;;;;;;89.60;39.73;;;5.90;99.90;;;;;;4989222;28;20045;-84
2021/10/08 05:24:27;;;;;;;94.93;40.15;;;5.90;99.90;;;;;;5002345;28;20101;-84
2021/10/08 05:27:14;;;;;;;95.95;39.45;;;5.90;99.90;;;;;;4994872;28;20117;-83
2021/10/08 05:30:02;;;;;;;89.25;39.10;;;5.90;99.90;;;;;;4989140;28;20366;-85
2021/10/08 05:32:50;;;;;;;88.32;39.28;;;5.90;99.90;;;;;;4998861;28;20133;-83
2021/10/08 05:35:39;;;;;;;79.88;38.78;;;5.90;99.90;;;;;;4977451;28;20106;-83
2021/10/08 05:38:29;;;;;;;82.72;39.92;;;5.90;99.90;;;;;;5010602;28;20050;-83
2021/10/08 05:41:16;;;;;;;89.55;40.80;;;5.90;99.90;;;;;;5004928;28;20100;-83
2021/10/08 05:44:07;;;;;;;89.88;40.85;;;5.90;99.90;;;;;;4976670;28;20146;-81
2021/10/08 05:46:54;;;;;;;90.55;43.53;;;5.90;99.90;;;;;;4998787;28;20148;-81
2021/10/08 05:49:42;;;;;;;113.65;46.85;;;6.00;99.90;;;;;;4984356;28;20038;-84
2021/10/08 05:52:29;;;;;;;95.05;44.30;;;6.00;99.90;;;;;;4974487;28;20485;-82
2021/10/08 05:55:17;;;;;;;95.43;45.45;;;6.00;99.90;;;;;;4989414;28;20058;-81
2021/10/08 05:58:06;;;;;;;105.15;46.78;;;6.10;99.90;;;;;;4989216;28;20062;-82
2021/10/08 06:00:54;;;;;;;109.57;47.72;;;6.20;99.90;;;;;;4981412;28;20081;-83
2021/10/08 06:03:42;;;;;;;113.70;48.22;;;6.20;99.90;;;;;;4969321;28;20354;-83
2021/10/08 06:06:32;;;;;;;117.47;50.33;;;6.30;99.90;;;;;;4987083;28;20034;-83
2021/10/08 06:09:19;;;;;;;99.35;46.72;;;6.40;99.90;;;;;;4975689;28;20050;-83
2021/10/08 06:12:06;;;;;;;115.97;49.70;;;6.40;99.90;;;;;;4991168;28;20156;-84
2021/10/08 06:14:54;;;;;;;98.13;47.05;;;6.50;99.90;;;;;;4976691;28;20058;-84
2021/10/08 06:17:41;;;;;;;106.80;49.72;;;6.60;99.90;;;;;;4991774;28;20512;-83
2021/10/08 06:20:29;;;;;;;107.03;49.65;;;6.70;99.90;;;;;;4978902;28;20166;-83
2021/10/08 06:23:16;;;;;;;100.65;47.88;;;6.80;99.90;;;;;;4994974;28;20073;-80
2021/10/08 06:26:06;;;;;;;111.22;50.00;;;6.80;99.90;;;;;;4993570;28;20338;-81
2021/10/08 06:28:56;;;;;;;115.43;52.97;;;6.90;99.90;;;;;;4993441;28;20107;-81
2021/10/08 06:31:43;;;;;;;116.35;54.03;;;7.10;99.90;;;;;;4996308;28;20061;-82
2021/10/08 06:34:31;;;;;;;129.82;55.55;;;7.30;99.90;;;;;;4983528;28;20205;-82
2021/10/08 06:37:23;;;;;;;108.85;53.22;;;7.50;99.90;;;;;;4991492;28;20039;-83
2021/10/08 06:40:11;;;;;;;110.63;51.35;;;7.60;99.90;;;;;;4990398;28;20045;-82
2021/10/08 06:43:01;;;;;;;95.50;49.40;;;7.60;99.90;;;;;;4995065;28;20073;-84
2021/10/08 06:45:48;;;;;;;110.60;51.20;;;7.60;99.90;;;;;;4975467;28;20533;-84
2021/10/08 06:48:35;;;;;;;97.05;49.00;;;7.70;99.90;;;;;;4979716;28;20050;-84
2021/10/08 06:51:23;;;;;;;106.85;49.58;;;7.70;99.90;;;;;;4984251;28;20050;-83
2021/10/08 06:54:10;;;;;;;95.65;47.67;;;7.80;99.90;;;;;;4986493;28;20502;-83
2021/10/08 06:56:59;;;;;;;86.13;45.75;;;8.00;99.90;;;;;;4982231;28;20077;-84
2021/10/08 06:59:46;;;;;;;84.78;45.55;;;8.10;99.90;;;;;;4991017;28;20050;-83
2021/10/08 07:02:36;;;;;;;82.75;44.92;;;8.20;99.90;;;;;;4980275;28;20038;-84
2021/10/08 07:05:25;;;;;;;74.57;41.13;;;8.50;99.90;;;;;;4981208;28;20373;-83
2021/10/08 07:08:15;;;;;;;68.07;39.58;;;8.70;99.90;;;;;;4987081;28;20885;-85
2021/10/08 07:11:02;;;;;;;62.80;35.90;;;8.80;99.90;;;;;;4991896;28;20069;-84
2021/10/08 07:13:51;;;;;;;55.35;32.83;;;8.90;99.90;;;;;;4993929;28;20148;-84
2021/10/08 07:16:38;;;;;;;46.70;30.40;;;9.00;99.90;;;;;;4992262;28;20073;-84
2021/10/08 07:19:30;;;;;;;38.40;26.75;;;9.00;99.90;;;;;;4999987;28;20136;-85
2021/10/08 07:22:17;;;;;;;32.35;23.55;;;9.20;99.90;;;;;;5001858;28;20054;-84
2021/10/08 07:25:09;;;;;;;35.40;22.77;;;9.30;99.90;;;;;;4996677;28;20042;-84
2021/10/08 07:27:57;;;;;;;28.00;21.17;;;9.40;99.90;;;;;;4981525;28;20094;-85
2021/10/08 07:30:46;;;;;;;28.63;18.25;;;9.70;99.90;;;;;;4991869;28;20106;-84
2021/10/08 07:33:34;;;;;;;22.83;17.63;;;9.80;99.90;;;;;;4979721;28;20125;-85
2021/10/08 07:36:22;;;;;;;23.33;17.10;;;10.00;99.90;;;;;;4984106;28;20477;-84
2021/10/08 07:39:09;;;;;;;25.38;16.85;;;10.00;99.90;;;;;;4963729;28;20054;-85
2021/10/08 07:41:56;;;;;;;21.00;15.00;;;10.10;99.90;;;;;;4988207;28;20131;-84
2021/10/08 07:44:48;;;;;;;21.17;14.57;;;10.40;99.90;;;;;;4993002;28;20366;-84
2021/10/08 07:47:36;;;;;;;18.83;15.43;;;10.50;99.90;;;;;;4974674;28;20128;-84
2021/10/08 07:50:25;;;;;;;17.52;15.10;;;10.70;99.90;;;;;;4989273;28;20483;-82
2021/10/08 07:53:13;;;;;;;16.98;13.80;;;10.90;99.90;;;;;;4990730;28;20507;-84
2021/10/08 07:56:03;;;;;;;17.38;13.15;;;11.20;99.90;;;;;;4999217;28;20050;-83
2021/10/08 07:58:50;;;;;;;15.52;12.05;;;11.40;99.90;;;;;;4992658;28;20210;-83
2021/10/08 08:01:37;;;;;;;16.17;11.48;;;11.90;99.90;;;;;;4988546;28;20054;-83
2021/10/08 08:04:27;;;;;;;15.25;11.82;;;12.20;99.90;;;;;;4985415;28;20133;-85
2021/10/08 08:07:14;;;;;;;15.05;11.60;;;12.30;99.90;;;;;;4994007;28;20068;-85
2021/10/08 08:10:04;;;;;;;16.42;12.52;;;12.10;99.90;;;;;;4991590;28;20058;-85
2021/10/08 08:13:00;;;;;;;17.58;12.93;;;12.00;99.90;;;;;;4984180;28;20052;-84
2021/10/08 08:15:50;;;;;;;17.33;12.70;;;11.90;99.90;;;;;;4977332;28;20046;-84
2021/10/08 08:18:37;;;;;;;16.92;12.93;;;12.00;99.90;;;;;;4994929;28;20046;-82
2021/10/08 08:21:24;;;;;;;18.23;12.25;;;12.10;99.90;;;;;;4972363;28;20086;-85
2021/10/08 08:24:15;;;;;;;15.73;11.93;;;12.20;99.90;;;;;;4990497;28;20047;-81
2021/10/08 08:27:02;;;;;;;14.20;11.90;;;12.30;99.90;;;;;;4980021;28;20102;-84
2021/10/08 08:29:52;;;;;;;13.15;10.52;;;12.40;99.90;;;;;;4990940;28;20057;-86
2021/10/08 08:32:42;;;;;;;15.52;11.52;;;12.50;99.90;;;;;;4989563;28;20421;-85
2021/10/08 08:35:34;;;;;;;15.30;10.75;;;12.60;99.90;;;;;;4986934;28;20361;-87
2021/10/08 08:38:25;;;;;;;17.00;11.18;;;12.80;99.90;;;;;;4988606;28;20046;-83
2021/10/08 08:41:15;;;;;;;17.30;11.73;;;12.90;99.90;;;;;;4990009;28;20473;-85
2021/10/08 08:44:19;;;;;;;15.25;11.40;;;12.90;99.90;;;;;;4994116;28;20177;-86
2021/10/08 08:47:07;;;;;;;16.40;11.63;;;13.00;99.90;;;;;;4988879;28;20042;-83
2021/10/08 08:49:54;;;;;;;13.25;10.50;;;12.80;99.90;;;;;;4979576;28;20050;-85
2021/10/08 08:52:47;;;;;;;12.35;10.32;;;12.80;99.90;;;;;;4984125;28;20054;-84
2021/10/08 08:55:35;;;;;;;;;;;13.00;99.90;;;;;;4978372;28;20098;-86
2021/10/08 08:58:25;;;;;;;14.38;10.32;;;13.20;99.90;;;;;;4997961;28;19936;-85
2021/10/08 09:01:14;;;;;;;16.88;10.25;;;13.50;99.90;;;;;;4984483;28;20042;-85
2021/10/08 09:04:05;;;;;;;12.57;10.00;;;13.60;99.90;;;;;;4989123;28;20049;-86
2021/10/08 09:06:56;;;;;;;17.48;10.95;;;13.40;99.90;;;;;;4983089;28;20085;-84
2021/10/08 09:09:44;;;;;;;13.80;8.85;;;14.10;99.90;;;;;;4979098;28;20064;-84
2021/10/08 09:12:32;;;;;;;14.45;9.32;;;15.10;99.90;;;;;;4974234;28;20051;-84
2021/10/08 09:15:20;;;;;;;11.05;9.05;;;15.50;99.90;;;;;;4985447;28;20124;-88
2021/10/08 09:18:12;;;;;;;11.35;9.02;;;15.10;99.90;;;;;;4976291;28;20058;-85
2021/10/08 09:21:07;;;;;;;;;;;15.30;99.90;;;;;;4984100;28;20046;-84
2021/10/08 09:23:54;;;;;;;15.68;9.82;;;15.00;99.90;;;;;;4989761;28;19974;-82
2021/10/08 09:26:43;;;;;;;13.82;9.48;;;14.60;99.90;;;;;;4992410;28;20050;-82
2021/10/08 09:29:31;;;;;;;12.13;8.45;;;14.50;99.90;;;;;;4972818;28;20043;-84
2021/10/08 09:32:21;;;;;;;15.48;9.35;;;14.60;99.90;;;;;;4993443;28;20450;-83
2021/10/08 09:35:11;;;;;;;12.63;9.80;;;14.60;99.90;;;;;;4979957;28;20118;-82
2021/10/08 09:38:07;;;;;;;13.35;9.88;;;14.50;99.90;;;;;;4991895;28;20050;-84
2021/10/08 09:41:01;;;;;;;15.13;9.90;;;14.40;99.90;;;;;;4979851;28;20350;-85
2021/10/08 09:43:51;;;;;;;16.52;10.40;;;14.20;99.90;;;;;;4982172;28;20053;-84
2021/10/08 09:46:38;;;;;;;15.57;10.90;;;14.00;99.90;;;;;;4994445;28;20458;-85
2021/10/08 09:49:25;;;;;;;17.92;10.23;;;13.80;99.90;;;;;;4983869;28;20544;-87
2021/10/08 09:52:30;;;;;;;14.15;10.15;;;13.70;99.90;;;;;;4993889;28;20082;-84
2021/10/08 09:55:18;;;;;;;16.50;10.93;;;13.60;99.90;;;;;;4988979;28;20097;-84
2021/10/08 09:58:07;;;;;;;14.75;11.07;;;13.60;99.90;;;;;;4997187;28;20058;-84
2021/10/08 10:01:06;;;;;;;16.40;11.18;;;13.60;99.90;;;;;;4996067;28;20057;-85
2021/10/08 10:03:54;;;;;;;14.90;10.68;;;13.40;99.90;;;;;;4987863;28;20056;-84
2021/10/08 10:06:42;;;;;;;16.40;11.32;;;13.50;99.90;;;;;;4990606;28;20558;-86
2021/10/08 10:09:30;;;;;;;17.83;11.07;;;13.30;99.90;;;;;;4978148;28;20465;-83
2021/10/08 10:12:19;;;;;;;17.90;10.75;;;13.30;99.90;;;;;;4995387;28;20080;-86
2021/10/08 10:15:11;;;;;;;16.90;10.55;;;13.50;99.90;;;;;;4982904;28;20165;-84
2021/10/08 10:18:03;;;;;;;14.77;10.77;;;13.20;99.90;;;;;;4990897;28;20062;-82
2021/10/08 10:20:52;;;;;;;16.92;11.50;;;13.10;99.90;;;;;;4995123;28;20077;-83
2021/10/08 10:23:41;;;;;;;14.60;11.02;;;13.10;99.90;;;;;;4983023;28;20532;-87
2021/10/08 10:26:36;;;;;;;13.55;10.63;;;13.20;99.90;;;;;;5000785;28;20121;-87
2021/10/08 10:29:23;;;;;;;15.20;9.95;;;13.30;99.90;;;;;;4992879;28;20350;-87
2021/10/08 10:32:11;;;;;;;17.83;10.77;;;13.50;99.90;;;;;;4980553;28;20086;-87
2021/10/08 10:35:02;;;;;;;19.52;10.98;;;13.80;99.90;;;;;;4978057;28;20470;-88
2021/10/08 10:37:50;;;;;;;14.18;9.95;;;14.10;99.90;;;;;;4987945;28;20062;-87
2021/10/08 10:40:37;;;;;;;16.13;10.43;;;14.30;99.90;;;;;;4986048;28;20051;-87
2021/10/08 10:43:29;;;;;;;16.25;9.93;;;14.40;99.90;;;;;;4984821;28;20041;-82
2021/10/08 10:46:31;;;;;;;13.18;9.95;;;14.60;99.90;;;;;;4994711;28;20100;-82
2021/10/08 10:52:21;;;;;;;12.68;8.75;;;14.90;99.90;;;;;;4991625;28;20049;-85
2021/10/08 10:55:12;;;;;;;15.70;10.23;;;15.20;99.90;;;;;;4997793;28;20477;-83
2021/10/08 10:58:06;;;;;;;17.40;9.98;;;14.90;99.90;;;;;;4982753;28;20186;-83
2021/10/08 11:01:01;;;;;;;12.73;9.18;;;14.90;99.90;;;;;;4991964;28;20053;-83
2021/10/08 11:04:25;;;;;;;14.95;9.98;;;14.90;99.90;;;;;;4982956;28;20039;-83
2021/10/08 11:07:25;;;;;;;13.57;9.88;;;14.80;99.90;;;;;;4992829;28;20042;-82
2021/10/08 11:10:14;;;;;;;12.18;9.38;;;14.80;99.90;;;;;;5003513;28;20360;-81
2021/10/08 11:17:45;;;;;;;12.77;9.88;;;14.90;99.90;;;;;;4953917;28;20038;-84
2021/10/08 11:20:39;;;;;;;16.77;10.57;;;14.60;99.90;;;;;;4970544;28;20438;-82
2021/10/08 11:23:33;;;;;;;15.60;10.57;;;14.40;99.90;;;;;;4990458;28;20488;-83
2021/10/08 11:26:20;;;;;;;15.80;10.02;;;14.40;99.90;;;;;;4995192;28;20138;-83
2021/10/08 11:29:08;;;;;;;15.15;10.35;;;14.50;99.90;;;;;;4983497;28;20173;-83
2021/10/08 11:32:13;;;;;;;14.25;10.75;;;14.50;99.90;;;;;;4991565;28;20060;-85
2021/10/08 11:35:02;;;;;;;14.52;11.18;;;14.30;99.90;;;;;;4975719;28;20178;-85
2021/10/08 11:37:49;;;;;;;19.85;12.02;;;14.10;99.90;;;;;;4991239;28;20050;-86
2021/10/08 11:40:42;;;;;;;17.92;11.88;;;14.10;99.90;;;;;;4988278;28;20423;-89
2021/10/08 11:43:35;;;;;;;18.67;11.80;;;14.00;99.90;;;;;;5002252;28;20046;-91
2021/10/08 11:47:09;;;;;;;19.20;12.00;;;14.00;99.90;;;;;;4978640;28;20125;-88
2021/10/08 11:53:53;;;;;;;;;;;;;;;;;;;;;
2021/10/08 11:57:09;;;;;;;;;;;;;;;;;;;;;
2021/10/08 12:00:44;;;;;;;16.85;11.45;;;14.20;99.90;;;;;;4997083;28;19951;-89
2021/10/08 12:03:40;;;;;;;16.23;11.80;;;14.20;99.90;;;;;;4998236;28;20054;-90
2021/10/08 12:07:10;;;;;;;15.07;11.02;;;14.10;99.90;;;;;;5011238;28;20127;-91
2021/10/08 12:10:24;;;;;;;17.73;10.60;;;14.10;99.90;;;;;;4991313;28;20050;-89
2021/10/08 12:13:42;;;;;;;14.70;9.98;;;14.20;99.90;;;;;;4983012;28;20073;-90
2021/10/08 12:17:13;;;;;;;;;;;;;;;;;;;;;
2021/10/08 12:20:44;;;;;;;;;;;14.40;99.90;;;;;;5007313;28;20042;-91
2021/10/08 12:24:23;;;;;;;16.00;10.80;;;14.50;99.90;;;;;;4948963;28;19937;-90
2021/10/08 12:27:21;;;;;;;17.30;11.15;;;14.80;99.90;;;;;;4978910;28;20046;-92
2021/10/08 12:30:15;;;;;;;15.68;11.02;;;14.70;99.90;;;;;;4997711;28;20080;-90
2021/10/08 12:33:07;;;;;;;18.25;11.40;;;14.70;99.90;;;;;;4983309;28;20043;-91
2021/10/08 12:36:24;;;;;;;14.25;11.15;;;14.70;99.90;;;;;;4997466;28;20185;-90
2021/10/08 12:39:39;;;;;;;13.18;10.05;;;14.90;99.90;;;;;;4977403;28;20038;-90
2021/10/08 12:45:46;;;;;;;15.40;10.18;;;15.50;99.90;;;;;;4921379;29;21108;-90
2021/10/08 12:48:40;;;;;;;20.27;10.20;;;15.70;99.90;;;;;;4899189;29;20152;-89
2021/10/08 12:51:27;;;;;;;13.48;10.68;;;15.60;99.90;;;;;;4913569;29;20071;-90
2021/10/08 12:55:10;;;;;;;17.80;11.23;;;15.40;99.90;;;;;;4908043;29;20056;-90
2021/10/08 12:58:09;;;;;;;15.20;11.23;;;15.00;99.90;;;;;;4896341;29;20037;-90
2021/10/08 13:01:07;;;;;;;17.83;12.00;;;14.50;99.90;;;;;;4983058;28;20094;-89
2021/10/08 13:04:36;;;;;;;17.85;11.20;;;14.50;99.90;;;;;;5020858;28;20027;-93
2021/10/08 13:07:54;;;;;;;;;;;;;;;;;;;;;
2021/10/08 13:11:46;;;;;;;;;;;;;;;;;;;;;
2021/10/08 13:22:45;;;;;;;15.02;10.15;;;14.40;99.90;;;;;;4827577;29;20037;-92
2021/10/08 13:26:32;;;;;;;15.38;11.18;;;14.40;99.90;;;;;;4871384;29;20154;-92
2021/10/08 13:29:37;;;;;;;17.33;11.13;;;14.20;99.90;;;;;;4911219;29;20124;-92
2021/10/08 13:33:22;;;;;;;15.80;10.75;;;14.20;99.90;;;;;;4856113;29;20469;-90
2021/10/08 13:40:21;;;;;;;16.23;10.77;;;14.40;99.90;;;;;;4882480;29;20084;-92
2021/10/08 13:44:00;;;;;;;17.35;9.70;;;14.80;99.90;;;;;;4809051;29;20062;-93
2021/10/08 13:46:50;;;;;;;13.52;10.43;;;15.10;99.90;;;;;;4805339;29;20051;-89
2021/10/08 13:53:45;;;;;;;14.25;10.27;;;14.60;99.90;;;;;;4828069;29;20054;-91
2021/10/08 13:57:30;;;;;;;17.77;10.75;;;14.50;99.90;;;;;;4833647;29;20513;-92
2021/10/08 14:01:00;;;;;;;15.65;10.40;;;14.50;99.90;;;;;;4793308;29;20238;-91
2021/10/08 14:04:16;;;;;;;16.08;10.93;;;14.60;99.90;;;;;;4827840;29;20062;-89
2021/10/08 14:10:34;;;;;;;17.33;12.02;;;14.10;99.90;;;;;;4772105;30;20503;-92
2021/10/08 14:14:04;;;;;;;16.98;12.73;;;13.70;99.90;;;;;;4769583;30;20078;-90
2021/10/08 14:17:13;;;;;;;16.20;12.43;;;13.50;99.90;;;;;;4756266;30;20040;-91
2021/10/08 14:25:02;;;;;;;;;;;;;;;;;;;;;
2021/10/08 14:35:56;;;;;;;19.52;12.18;;;13.10;99.90;;;;;;4854118;29;20061;-89
2021/10/08 14:43:41;;;;;;;21.08;12.90;;;13.30;99.90;;;;;;4861911;29;20073;-91
2021/10/08 14:59:13;;;;;;;;;;;;;;;;;;;;;
2021/10/08 15:02:54;;;;;;;15.73;11.05;;;13.60;99.90;;;;;;4856481;29;20046;-91
2021/10/08 15:06:45;;;;;;;;;;;;;;;;;;;;;
2021/10/08 15:09:56;;;;;;;;;;;;;;;;;;;;;
2021/10/08 15:13:48;;;;;;;;;;;;;;;;;;;;;
2021/10/08 15:17:08;;;;;;;17.80;10.23;;;13.40;99.90;;;;;;4933904;29;20502;-91
2021/10/08 15:19:58;;;;;;;14.98;9.70;;;13.40;99.90;;;;;;4929522;29;20062;-91
2021/10/08 15:22:50;;;;;;;13.93;10.07;;;13.30;99.90;;;;;;4939287;29;20040;-90
2021/10/08 15:25:38;;;;;;;14.57;9.68;;;13.30;99.90;;;;;;4906940;29;20052;-91
2021/10/08 15:28:25;;;;;;;12.10;10.52;;;13.30;99.90;;;;;;4904871;29;20048;-91
2021/10/08 15:45:44;;;;;;;15.00;10.95;;;13.30;99.90;;;;;;4772290;30;20108;-91
2021/10/08 15:48:45;;;;;;;16.42;10.32;;;13.30;99.90;;;;;;4769841;29;20135;-91
2021/10/08 15:52:27;;;;;;;;;;;;;;;;;;;;;
2021/10/08 15:55:38;;;;;;;;;;;;;;;;;;;;;
2021/10/08 15:58:45;;;;;;;14.85;11.07;;;13.10;99.90;;;;;;4809327;29;20053;-90
2021/10/08 16:01:35;;;;;;;15.55;10.68;;;13.00;99.90;;;;;;4867232;29;20098;-90
2021/10/08 16:04:56;;;;;;;14.35;10.70;;;13.00;99.90;;;;;;4920248;29;20092;-91
2021/10/08 16:07:56;;;;;;;13.85;10.95;;;12.90;99.90;;;;;;4908448;29;20124;-91
2021/10/08 16:11:07;;;;;;;18.33;12.60;;;12.80;99.90;;;;;;4911326;29;20051;-90
2021/10/08 16:14:27;;;;;;;;;;;;;;;;;;;;;
2021/10/08 16:17:21;;;;;;;20.05;12.98;;;12.60;99.90;;;;;;4870972;29;20059;-90
2021/10/08 16:20:26;;;;;;;17.40;12.30;;;12.50;99.90;;;;;;4866918;29;20045;-90
2021/10/08 16:23:18;;;;;;;18.63;12.27;;;12.40;99.90;;;;;;4866262;29;20093;-89
2021/10/08 16:26:20;;;;;;;;;;;;;;;;;;;;;
2021/10/08 16:29:20;;;;;;;18.27;13.75;;;12.20;99.90;;;;;;4862741;29;20045;-90
2021/10/08 16:32:10;;;;;;;21.38;15.50;;;12.20;99.90;;;;;;4898850;29;20465;-89
2021/10/08 16:34:59;;;;;;;20.17;15.23;;;12.10;99.90;;;;;;4922826;29;20051;-89
2021/10/08 16:38:26;;;;;;;;;;;;;;;;;;;;;
2021/10/08 16:41:30;;;;;;;22.42;14.77;;;12.00;99.90;;;;;;4924094;29;20434;-90
2021/10/08 16:44:22;;;;;;;23.67;15.88;;;11.90;99.90;;;;;;4912004;29;20091;-90
2021/10/08 16:47:27;;;;;;;22.95;15.73;;;11.80;99.90;;;;;;4912918;29;20123;-90
2021/10/08 16:50:17;;;;;;;20.80;15.52;;;11.70;99.90;;;;;;4908505;29;20127;-91
2021/10/08 16:53:12;;;;;;;20.45;15.23;;;11.70;99.90;;;;;;4916742;29;20056;-91
2021/10/08 16:56:33;;;;;;;21.05;15.68;;;11.60;99.90;;;;;;4914693;29;20475;-90
2021/10/08 16:59:29;;;;;;;24.40;17.35;;;11.50;99.90;;;;;;4920003;29;20506;-90
2021/10/08 17:02:27;;;;;;;22.30;15.77;;;11.30;99.90;;;;;;4931339;29;20044;-90
2021/10/08 17:05:23;;;;;;;23.85;15.93;;;11.20;99.90;;;;;;4900801;29;21941;-89
2021/10/08 17:08:15;;;;;;;22.13;17.25;;;11.00;99.90;;;;;;4915486;29;20040;-88
2021/10/08 17:11:04;;;;;;;26.65;17.58;;;10.80;99.90;;;;;;4909493;29;20055;-88
2021/10/08 17:13:52;;;;;;;25.02;17.00;;;10.70;99.90;;;;;;4911181;29;20063;-89